Time;durP1;ratioP1;P1;durP2;ratioP2;P2;SDS_P1;SDS_P2;PMS_P1;PMS_P2;Temp;Humidity;BMP_temperature;BMP_pressure;BME280_temperature;BME280_humidity;BME280_pressure;Samples;Min_cycle;Max_cycle;Signal;HPM_P1;HPM_P2
2022/01/12 00:00:38;;;;;;;382.52;126.07;;;;;;;;;;10518246;28;20308;-70
2022/01/12 00:05:49;;;;;;;444.87;137.43;;;;;;;;;;10475653;28;20116;-70
2022/01/12 00:10:52;;;;;;;439.75;134.15;;;;;;;;;;10511705;28;20048;-71
2022/01/12 00:15:55;;;;;;;410.55;131.43;;;;;;;;;;10517533;28;20056;-70
2022/01/12 00:20:59;;;;;;;400.65;131.27;;;;;;;;;;10518269;28;20063;-70
2022/01/12 00:26:06;;;;;;;514.28;151.93;;;;;;;;;;10517753;28;20332;-70
2022/01/12 00:36:32;;;;;;;586.80;158.88;;;;;;;;;;10520114;28;20037;-70
2022/01/12 00:41:37;;;;;;;626.00;140.95;;;;;;;;;;10530523;28;20044;-70
2022/01/12 00:46:40;;;;;;;502.27;135.32;;;;;;;;;;10515632;28;20041;-70
2022/01/12 00:51:47;;;;;;;521.80;147.53;;;;;;;;;;10515685;28;20052;-69
2022/01/12 00:56:50;;;;;;;472.77;135.05;;;;;;;;;;10530179;28;20044;-70
2022/01/12 01:01:52;;;;;;;564.20;137.55;;;;;;;;;;10515428;28;20051;-70
2022/01/12 01:06:56;;;;;;;488.52;131.02;;;;;;;;;;10515069;28;20040;-70
2022/01/12 01:11:59;;;;;;;540.47;138.57;;;;;;;;;;10514192;28;20040;-70
2022/01/12 01:25:23;;;;;;;426.70;128.45;;;;;;;;;;10514073;28;20083;-70
2022/01/12 01:27:50;;;;;;;389.65;127.55;;;;;;;;;;10529916;28;20041;-70
2022/01/12 01:32:54;;;;;;;405.15;133.23;;;;;;;;;;10514365;28;20086;-70
2022/01/12 01:38:00;;;;;;;360.25;118.43;;;;;;;;;;10514539;28;20048;-70
2022/01/12 01:43:15;;;;;;;337.17;115.60;;;;;;;;;;10525861;28;20052;-70
2022/01/12 01:53:40;;;;;;;335.88;115.32;;;;;;;;;;10512916;28;19916;-70
2022/01/12 01:58:43;;;;;;;331.00;120.87;;;;;;;;;;10514584;28;20270;-70
2022/01/12 02:03:46;;;;;;;334.35;115.60;;;;;;;;;;10514097;28;20051;-70
2022/01/12 02:08:50;;;;;;;341.67;119.90;;;;;;;;;;10514735;28;20055;-70
2022/01/12 02:13:52;;;;;;;317.90;114.97;;;;;;;;;;10514380;28;20036;-70
2022/01/12 02:19:12;;;;;;;320.60;116.03;;;;;;;;;;10515591;28;20056;-70
2022/01/12 02:35:18;;;;;;;345.65;119.07;;;;;;;;;;10521770;28;20127;-70
2022/01/12 02:40:22;;;;;;;359.27;120.20;;;;;;;;;;10514627;28;20052;-70
2022/01/12 02:50:53;;;;;;;376.98;125.82;;;;;;;;;;10495975;28;20060;-71
2022/01/12 02:55:58;;;;;;;344.73;120.10;;;;;;;;;;10521521;28;20052;-71
2022/01/12 03:01:18;;;;;;;367.65;125.00;;;;;;;;;;10520855;28;20044;-70
2022/01/12 03:06:25;;;;;;;346.45;119.38;;;;;;;;;;10534449;28;20371;-70
2022/01/12 03:11:31;;;;;;;355.55;121.13;;;;;;;;;;10534051;28;20248;-70
2022/01/12 03:16:34;;;;;;;356.80;121.90;;;;;;;;;;10529637;28;20252;-70
2022/01/12 03:21:37;;;;;;;347.67;124.95;;;;;;;;;;10520007;28;20332;-71
2022/01/12 03:26:41;;;;;;;321.60;115.70;;;;;;;;;;10517321;28;20624;-70
2022/01/12 03:31:44;;;;;;;359.65;119.40;;;;;;;;;;10518785;28;20045;-70
2022/01/12 03:37:15;;;;;;;368.00;127.68;;;;;;;;;;10519491;28;20040;-70
2022/01/12 03:42:19;;;;;;;310.67;112.22;;;;;;;;;;10519039;28;20332;-69
2022/01/12 03:47:21;;;;;;;316.00;109.88;;;;;;;;;;10477763;28;20386;-70
2022/01/12 03:52:24;;;;;;;304.80;109.85;;;;;;;;;;10510601;28;20270;-70
2022/01/12 03:57:28;;;;;;;280.20;105.00;;;;;;;;;;10519188;28;20037;-69
2022/01/12 04:02:32;;;;;;;294.40;107.30;;;;;;;;;;10517897;28;20044;-70
2022/01/12 04:12:59;;;;;;;286.67;105.60;;;;;;;;;;10516753;28;20049;-70
2022/01/12 04:18:02;;;;;;;;;;;;;;;;;;10524295;28;20059;-69
2022/01/12 04:23:20;;;;;;;274.45;101.05;;;;;;;;;;10517230;28;19916;-70
2022/01/12 04:28:26;;;;;;;272.48;100.22;;;;;;;;;;10532760;28;20048;-69
2022/01/12 04:33:29;;;;;;;282.83;101.78;;;;;;;;;;10516582;28;20126;-70
2022/01/12 04:38:34;;;;;;;278.85;104.90;;;;;;;;;;10517908;28;20048;-71
2022/01/12 04:43:41;;;;;;;279.60;103.70;;;;;;;;;;10509099;28;20347;-69
2022/01/12 04:48:54;;;;;;;285.33;102.35;;;;;;;;;;10520089;28;20054;-71
2022/01/12 04:53:57;;;;;;;290.10;108.13;;;;;;;;;;10516384;28;20358;-70
2022/01/12 04:59:01;;;;;;;297.95;108.43;;;;;;;;;;10515475;28;20378;-70
2022/01/12 05:09:48;;;;;;;290.08;105.72;;;;;;;;;;10515030;28;20457;-70
2022/01/12 05:15:03;;;;;;;297.17;107.47;;;;;;;;;;10512971;28;20040;-70
2022/01/12 05:20:07;;;;;;;277.02;105.78;;;;;;;;;;10515328;28;20060;-70
2022/01/12 05:25:10;;;;;;;277.97;98.27;;;;;;;;;;10514978;28;20040;-70
2022/01/12 05:30:15;;;;;;;256.92;96.07;;;;;;;;;;10514311;28;20072;-70
2022/01/12 05:35:19;;;;;;;247.47;97.30;;;;;;;;;;10514793;28;20102;-70
2022/01/12 05:40:22;;;;;;;267.55;98.07;;;;;;;;;;10515607;28;20036;-70
2022/01/12 05:45:27;;;;;;;251.23;99.55;;;;;;;;;;10513894;28;20036;-71
2022/01/12 05:50:30;;;;;;;245.50;92.90;;;;;;;;;;10500854;28;20387;-71
2022/01/12 05:55:33;;;;;;;240.13;89.18;;;;;;;;;;10476695;28;20060;-71
2022/01/12 06:00:37;;;;;;;272.75;91.13;;;;;;;;;;10497317;28;20083;-70
2022/01/12 06:05:40;;;;;;;248.25;86.72;;;;;;;;;;10512720;28;20236;-70
2022/01/12 06:10:43;;;;;;;214.15;77.70;;;;;;;;;;10512241;28;20470;-70
2022/01/12 06:15:47;;;;;;;208.20;75.65;;;;;;;;;;10510057;28;20067;-72
2022/01/12 06:20:50;;;;;;;169.48;65.63;;;;;;;;;;10497004;28;20052;-72
2022/01/12 06:25:52;;;;;;;146.40;58.55;;;;;;;;;;10493620;28;20049;-70
2022/01/12 06:31:13;;;;;;;153.50;59.88;;;;;;;;;;10521667;28;20070;-70
2022/01/12 06:36:17;;;;;;;144.30;53.72;;;;;;;;;;10524958;28;20044;-70
2022/01/12 06:41:21;;;;;;;128.97;49.83;;;;;;;;;;10521165;28;20044;-70
2022/01/12 06:46:29;;;;;;;135.88;50.60;;;;;;;;;;10520589;28;20134;-70
2022/01/12 06:51:32;;;;;;;159.55;53.50;;;;;;;;;;10520087;28;20044;-70
2022/01/12 06:56:35;;;;;;;171.55;66.43;;;;;;;;;;10520509;28;20040;-70
2022/01/12 07:01:39;;;;;;;176.40;70.25;;;;;;;;;;10519899;28;20114;-74
2022/01/12 07:06:42;;;;;;;179.45;72.25;;;;;;;;;;10518034;28;20346;-73
2022/01/12 07:11:44;;;;;;;190.90;79.30;;;;;;;;;;10520248;28;20052;-71
2022/01/12 07:16:49;;;;;;;190.20;78.82;;;;;;;;;;10519355;28;20061;-70
2022/01/12 07:21:52;;;;;;;215.23;88.53;;;;;;;;;;10517834;28;20052;-73
2022/01/12 07:26:54;;;;;;;204.32;85.07;;;;;;;;;;10519214;28;20041;-73
2022/01/12 07:31:59;;;;;;;191.38;79.85;;;;;;;;;;10519507;28;20063;-70
2022/01/12 07:37:01;;;;;;;227.77;91.97;;;;;;;;;;10516565;28;20051;-73
2022/01/12 07:42:05;;;;;;;263.88;114.75;;;;;;;;;;10519614;28;20040;-70
2022/01/12 07:47:11;;;;;;;237.73;101.63;;;;;;;;;;10518519;28;20037;-75
2022/01/12 07:52:14;;;;;;;219.32;93.30;;;;;;;;;;10519269;28;20040;-71
2022/01/12 07:57:16;;;;;;;233.02;96.97;;;;;;;;;;10517901;28;20033;-70
2022/01/12 08:02:21;;;;;;;253.45;105.07;;;;;;;;;;10520348;28;20216;-73
2022/01/12 08:07:23;;;;;;;228.98;96.90;;;;;;;;;;10518489;28;20071;-73
2022/01/12 08:12:26;;;;;;;222.57;96.85;;;;;;;;;;10516995;28;20052;-73
2022/01/12 08:17:30;;;;;;;226.05;98.57;;;;;;;;;;10516769;28;20106;-70
2022/01/12 08:22:33;;;;;;;224.90;97.83;;;;;;;;;;10517087;28;20044;-70
2022/01/12 08:27:36;;;;;;;246.10;107.07;;;;;;;;;;10491453;28;20053;-70
2022/01/12 08:32:40;;;;;;;244.43;102.15;;;;;;;;;;10493422;28;20051;-71
2022/01/12 08:37:44;;;;;;;238.35;102.43;;;;;;;;;;10516967;28;20048;-73
2022/01/12 08:42:48;;;;;;;239.25;102.13;;;;;;;;;;10516400;28;20048;-73
2022/01/12 08:47:53;;;;;;;245.93;102.00;;;;;;;;;;10518172;28;20332;-74
2022/01/12 08:52:55;;;;;;;246.43;107.47;;;;;;;;;;10515934;28;20236;-74
2022/01/12 08:57:59;;;;;;;245.02;103.15;;;;;;;;;;10516731;28;20041;-72
2022/01/12 09:03:03;;;;;;;240.13;96.75;;;;;;;;;;10515707;28;20051;-70
2022/01/12 09:08:06;;;;;;;236.73;98.03;;;;;;;;;;10514985;28;20040;-70
2022/01/12 09:13:09;;;;;;;223.57;97.47;;;;;;;;;;10515832;28;20047;-71
2022/01/12 09:18:13;;;;;;;217.75;93.72;;;;;;;;;;10514760;28;20060;-71
2022/01/12 09:23:16;;;;;;;219.25;94.57;;;;;;;;;;10514430;28;20048;-70
2022/01/12 09:28:19;;;;;;;215.23;94.78;;;;;;;;;;10516012;28;20041;-71
2022/01/12 09:33:23;;;;;;;198.38;88.25;;;;;;;;;;10513938;28;20371;-70
2022/01/12 09:38:25;;;;;;;201.15;92.60;;;;;;;;;;10514711;28;20274;-71
2022/01/12 09:43:32;;;;;;;205.80;89.18;;;;;;;;;;10514672;28;20198;-73
2022/01/12 09:48:36;;;;;;;213.82;94.40;;;;;;;;;;10528395;28;20045;-70
2022/01/12 09:53:40;;;;;;;214.88;96.05;;;;;;;;;;10513656;28;20105;-70
2022/01/12 09:58:43;;;;;;;185.68;83.35;;;;;;;;;;10517132;28;20047;-70
2022/01/12 10:03:47;;;;;;;200.23;88.53;;;;;;;;;;10508738;28;20095;-74
2022/01/12 10:08:55;;;;;;;193.57;82.82;;;;;;;;;;10500385;28;20049;-70
2022/01/12 10:13:58;;;;;;;180.85;79.88;;;;;;;;;;10535824;28;20040;-70
2022/01/12 10:19:06;;;;;;;179.10;76.75;;;;;;;;;;10522081;28;20237;-73
2022/01/12 10:24:10;;;;;;;172.65;74.88;;;;;;;;;;10520744;28;20059;-72
2022/01/12 10:29:15;;;;;;;173.13;74.72;;;;;;;;;;10521706;28;20055;-73
2022/01/12 10:34:21;;;;;;;170.85;74.97;;;;;;;;;;10521336;28;20101;-70
2022/01/12 10:39:26;;;;;;;166.32;71.50;;;;;;;;;;10535070;28;20048;-73
2022/01/12 10:44:30;;;;;;;171.37;72.83;;;;;;;;;;10520787;28;20056;-72
2022/01/12 10:49:37;;;;;;;158.82;72.10;;;;;;;;;;10519382;28;20040;-71
2022/01/12 10:54:49;;;;;;;164.45;71.13;;;;;;;;;;10535191;28;20089;-73
2022/01/12 11:00:06;;;;;;;147.85;65.78;;;;;;;;;;10520102;28;20078;-74
2022/01/12 11:05:10;;;;;;;144.75;66.63;;;;;;;;;;10534989;28;20041;-75
2022/01/12 11:10:13;;;;;;;150.82;66.80;;;;;;;;;;10519777;28;20053;-71
2022/01/12 11:15:17;;;;;;;156.50;70.45;;;;;;;;;;10519778;28;20251;-70
2022/01/12 11:20:26;;;;;;;145.70;62.53;;;;;;;;;;10534025;28;20044;-73
2022/01/12 11:25:31;;;;;;;138.35;61.35;;;;;;;;;;10535209;28;20044;-71
2022/01/12 11:30:35;;;;;;;144.00;61.22;;;;;;;;;;10534983;28;20355;-72
2022/01/12 11:35:42;;;;;;;137.02;56.75;;;;;;;;;;10517590;28;20244;-73
2022/01/12 11:40:44;;;;;;;133.88;58.42;;;;;;;;;;10529273;28;20340;-73
2022/01/12 11:45:47;;;;;;;134.88;59.55;;;;;;;;;;10517903;28;20071;-73
2022/01/12 11:50:54;;;;;;;134.80;58.20;;;;;;;;;;10518997;28;20162;-73
2022/01/12 11:55:59;;;;;;;139.13;58.83;;;;;;;;;;10532748;28;20254;-73
2022/01/12 12:01:02;;;;;;;136.50;57.47;;;;;;;;;;10517512;28;20048;-71
2022/01/12 12:06:23;;;;;;;137.70;58.92;;;;;;;;;;10517643;28;20051;-71
2022/01/12 12:11:28;;;;;;;146.65;62.70;;;;;;;;;;10517069;28;20040;-72
2022/01/12 12:16:31;;;;;;;148.43;64.50;;;;;;;;;;10516313;28;20075;-71
2022/01/12 12:21:37;;;;;;;130.32;58.72;;;;;;;;;;10515804;28;20047;-72
2022/01/12 12:26:47;;;;;;;;;;;;;;;;;;10516375;28;20064;-69
2022/01/12 12:31:50;;;;;;;103.78;45.38;;;;;;;;;;10517687;28;20103;-73
2022/01/12 12:37:05;;;;;;;94.57;41.38;;;;;;;;;;10516056;28;20352;-75
2022/01/12 12:42:15;;;;;;;83.05;40.25;;;;;;;;;;10530721;28;20052;-72
2022/01/12 12:47:20;;;;;;;90.43;42.67;;;;;;;;;;10515224;28;20399;-71
2022/01/12 12:52:26;;;;;;;89.57;42.87;;;;;;;;;;10515453;28;20293;-73
2022/01/12 12:57:30;;;;;;;87.50;40.80;;;;;;;;;;10530399;28;20044;-71
2022/01/12 13:02:35;;;;;;;91.38;43.20;;;;;;;;;;10515556;28;20048;-73
2022/01/12 13:07:42;;;;;;;86.38;41.58;;;;;;;;;;10510533;28;20296;-74
2022/01/12 13:12:46;;;;;;;84.57;40.75;;;;;;;;;;10528681;28;20044;-72
2022/01/12 13:17:57;;;;;;;93.22;44.03;;;;;;;;;;10516658;28;20086;-70
2022/01/12 13:23:05;;;;;;;87.75;39.92;;;;;;;;;;10528545;28;20048;-74
2022/01/12 13:28:08;;;;;;;84.45;38.92;;;;;;;;;;10529605;28;20037;-71
2022/01/12 13:33:11;;;;;;;83.28;39.08;;;;;;;;;;10514100;28;20048;-73
2022/01/12 13:38:25;;;;;;;80.63;38.85;;;;;;;;;;10514418;28;20037;-73
2022/01/12 13:43:27;;;;;;;91.75;41.60;;;;;;;;;;10509124;28;20057;-73
2022/01/12 13:48:32;;;;;;;86.95;38.95;;;;;;;;;;10476528;28;20312;-70
2022/01/12 13:53:37;;;;;;;89.20;41.47;;;;;;;;;;10514855;28;20055;-71
2022/01/12 13:58:40;;;;;;;;;;;;;;;;;;10528666;28;20052;-70
2022/01/12 14:03:46;;;;;;;106.70;44.22;;;;;;;;;;10515228;28;19924;-71
2022/01/12 14:08:57;;;;;;;100.80;45.85;;;;;;;;;;10527192;28;20048;-73
2022/01/12 14:14:01;;;;;;;98.03;45.90;;;;;;;;;;10527409;28;20055;-71
2022/01/12 14:19:05;;;;;;;101.18;46.55;;;;;;;;;;10514007;28;20048;-73
2022/01/12 14:24:11;;;;;;;115.57;48.47;;;;;;;;;;10513147;28;20515;-72
2022/01/12 14:29:16;;;;;;;106.65;49.28;;;;;;;;;;10526985;28;20045;-74
2022/01/12 14:34:19;;;;;;;112.93;50.33;;;;;;;;;;10513028;28;20205;-71
2022/01/12 14:39:23;;;;;;;115.18;51.53;;;;;;;;;;10513496;28;20040;-71
2022/01/12 14:44:28;;;;;;;111.95;51.22;;;;;;;;;;10515700;28;20272;-70
2022/01/12 14:49:33;;;;;;;121.35;54.10;;;;;;;;;;10529391;28;20040;-74
2022/01/12 14:54:38;;;;;;;120.13;55.10;;;;;;;;;;10517258;28;20036;-71
2022/01/12 14:59:41;;;;;;;124.50;54.22;;;;;;;;;;10521756;28;20040;-73
2022/01/12 15:04:43;;;;;;;131.52;57.72;;;;;;;;;;10522022;28;20052;-73
2022/01/12 15:09:48;;;;;;;125.47;56.95;;;;;;;;;;10522066;28;20048;-70
2022/01/12 15:14:59;;;;;;;140.10;59.25;;;;;;;;;;10521861;28;20086;-74
2022/01/12 15:20:07;;;;;;;143.07;64.28;;;;;;;;;;10522242;28;20132;-72
2022/01/12 15:25:15;;;;;;;151.23;65.90;;;;;;;;;;10534383;28;20048;-74
2022/01/12 15:30:18;;;;;;;160.65;67.50;;;;;;;;;;10535416;28;20217;-71
2022/01/12 15:35:21;;;;;;;162.40;70.78;;;;;;;;;;10520390;28;20048;-72
2022/01/12 15:40:25;;;;;;;158.43;71.25;;;;;;;;;;10521206;28;20056;-71
2022/01/12 15:45:28;;;;;;;157.93;66.88;;;;;;;;;;10519322;28;20059;-72
2022/01/12 15:50:33;;;;;;;157.98;68.90;;;;;;;;;;10519522;28;20064;-70
2022/01/12 15:55:38;;;;;;;;;;;;;;;;;;10517771;28;20075;-73
2022/01/12 16:00:40;;;;;;;173.80;69.70;;;;;;;;;;10507088;28;20211;-71
2022/01/12 16:05:43;;;;;;;173.30;73.78;;;;;;;;;;10509925;28;20040;-73
2022/01/12 16:10:47;;;;;;;180.77;76.43;;;;;;;;;;10519531;28;20049;-72
2022/01/12 16:15:50;;;;;;;183.32;74.57;;;;;;;;;;10517470;28;20056;-69
2022/01/12 16:20:56;;;;;;;171.80;70.10;;;;;;;;;;10517595;28;20060;-69
2022/01/12 16:26:03;;;;;;;159.85;67.90;;;;;;;;;;10532140;28;20074;-71
2022/01/12 16:31:18;;;;;;;154.07;63.83;;;;;;;;;;10532105;28;20235;-73
2022/01/12 16:36:22;;;;;;;158.75;68.25;;;;;;;;;;10522678;28;20055;-70
2022/01/12 16:41:27;;;;;;;156.95;67.80;;;;;;;;;;10516099;28;20051;-73
2022/01/12 16:46:30;;;;;;;173.02;69.32;;;;;;;;;;10517056;28;20090;-72
2022/01/12 16:51:32;;;;;;;173.23;68.18;;;;;;;;;;10520931;28;20339;-73
2022/01/12 16:56:36;;;;;;;170.55;65.82;;;;;;;;;;10516025;28;20048;-70
2022/01/12 17:01:39;;;;;;;178.27;66.50;;;;;;;;;;10517412;28;20245;-72
2022/01/12 17:06:42;;;;;;;175.20;63.63;;;;;;;;;;10515988;28;20055;-71
2022/01/12 17:11:46;;;;;;;189.85;67.20;;;;;;;;;;10516388;28;20346;-72
2022/01/12 17:17:47;;;;;;;185.15;65.43;;;;;;;;;;10516647;28;20056;-73
2022/01/12 17:22:50;;;;;;;198.50;68.65;;;;;;;;;;10529815;28;20056;-70
2022/01/12 17:28:32;;;;;;;207.20;66.57;;;;;;;;;;10516519;28;20032;-71
2022/01/12 17:33:35;;;;;;;232.82;70.03;;;;;;;;;;10428571;28;20049;-72
2022/01/12 17:38:38;;;;;;;247.88;73.60;;;;;;;;;;10427241;28;20053;-73
2022/01/12 17:43:42;;;;;;;208.80;65.28;;;;;;;;;;10429105;28;20049;-72
2022/01/12 17:48:47;;;;;;;228.40;68.57;;;;;;;;;;10428482;28;20364;-71
2022/01/12 17:53:49;;;;;;;239.33;69.80;;;;;;;;;;10428465;28;20076;-73
2022/01/12 17:58:53;;;;;;;221.88;64.93;;;;;;;;;;10428350;28;20050;-71
2022/01/12 18:03:56;;;;;;;239.90;67.80;;;;;;;;;;10487751;28;20079;-70
2022/01/12 18:08:59;;;;;;;245.07;69.97;;;;;;;;;;10514885;28;20122;-70
2022/01/12 18:14:03;;;;;;;212.85;65.10;;;;;;;;;;10514524;28;20036;-72
2022/01/12 18:19:21;;;;;;;211.13;62.72;;;;;;;;;;10516946;28;20328;-72
2022/01/12 18:24:24;;;;;;;222.45;66.30;;;;;;;;;;10540568;28;20044;-70
2022/01/12 18:29:28;;;;;;;221.05;59.25;;;;;;;;;;10523278;28;20071;-70
2022/01/12 18:34:30;;;;;;;214.02;62.60;;;;;;;;;;10522207;28;20090;-74
2022/01/12 18:39:34;;;;;;;230.63;63.50;;;;;;;;;;10522480;28;20051;-71
2022/01/12 18:44:39;;;;;;;238.93;67.85;;;;;;;;;;10522957;28;20348;-72
2022/01/12 18:49:41;;;;;;;215.65;64.40;;;;;;;;;;10506849;28;20067;-73
2022/01/12 18:54:44;;;;;;;212.15;60.08;;;;;;;;;;10514849;28;20116;-70
2022/01/12 18:59:48;;;;;;;204.63;62.50;;;;;;;;;;10521724;28;20193;-72
2022/01/12 19:04:51;;;;;;;218.43;62.83;;;;;;;;;;10521397;28;20051;-70
2022/01/12 19:09:54;;;;;;;208.18;62.17;;;;;;;;;;10553938;28;20335;-73
2022/01/12 19:14:59;;;;;;;205.93;62.88;;;;;;;;;;10549640;28;20044;-70
2022/01/12 19:20:03;;;;;;;221.60;66.03;;;;;;;;;;10521413;28;20351;-70
2022/01/12 19:25:07;;;;;;;201.02;63.53;;;;;;;;;;10520920;28;20044;-72
2022/01/12 19:30:13;;;;;;;192.93;59.35;;;;;;;;;;10522610;28;20040;-70
2022/01/12 19:35:18;;;;;;;183.13;55.42;;;;;;;;;;10527363;28;20062;-73
2022/01/12 19:40:21;;;;;;;190.67;55.07;;;;;;;;;;10520647;28;20341;-71
2022/01/12 19:45:25;;;;;;;173.45;53.97;;;;;;;;;;10529345;28;20041;-71
2022/01/12 19:50:30;;;;;;;186.13;53.83;;;;;;;;;;10488828;28;20287;-70
2022/01/12 19:55:41;;;;;;;193.90;55.72;;;;;;;;;;10496782;28;20050;-71
2022/01/12 20:00:51;;;;;;;195.45;54.95;;;;;;;;;;10533690;28;20033;-74
2022/01/12 20:05:54;;;;;;;187.63;54.80;;;;;;;;;;10508583;28;20241;-71
2022/01/12 20:10:57;;;;;;;180.02;52.28;;;;;;;;;;10502318;28;20209;-72
2022/01/12 20:16:05;;;;;;;169.90;50.95;;;;;;;;;;10519252;28;20075;-71
2022/01/12 20:21:46;;;;;;;162.63;49.28;;;;;;;;;;10532719;28;20040;-69
2022/01/12 20:26:49;;;;;;;163.40;46.17;;;;;;;;;;10368711;28;20054;-71
2022/01/12 20:31:53;;;;;;;134.20;40.47;;;;;;;;;;10390822;28;20058;-71
2022/01/12 20:36:56;;;;;;;122.68;41.33;;;;;;;;;;10325911;28;21220;-71
2022/01/12 20:41:58;;;;;;;144.30;44.78;;;;;;;;;;10374828;28;20060;-70
2022/01/12 20:47:03;;;;;;;136.68;43.33;;;;;;;;;;10389073;28;20045;-74
2022/01/12 20:52:06;;;;;;;127.22;39.67;;;;;;;;;;10389802;28;20233;-68
2022/01/12 20:57:09;;;;;;;106.72;34.60;;;;;;;;;;10373022;28;20362;-72
2022/01/12 21:02:16;;;;;;;112.70;35.30;;;;;;;;;;10421631;28;20044;-74
2022/01/12 21:07:19;;;;;;;99.25;32.67;;;;;;;;;;10523533;28;20106;-73
2022/01/12 21:12:22;;;;;;;90.28;30.88;;;;;;;;;;10512493;28;20043;-71
2022/01/12 21:17:27;;;;;;;89.47;28.42;;;;;;;;;;10514290;28;20044;-74
2022/01/12 21:22:29;;;;;;;78.87;26.63;;;;;;;;;;10514710;28;20055;-72
2022/01/12 21:27:33;;;;;;;74.10;25.55;;;;;;;;;;10515501;28;20052;-73
2022/01/12 21:32:37;;;;;;;78.85;27.65;;;;;;;;;;10516172;28;20332;-72
2022/01/12 21:37:49;;;;;;;81.45;27.17;;;;;;;;;;10514090;28;20326;-72
2022/01/12 21:42:54;;;;;;;81.72;26.73;;;;;;;;;;10529664;28;20078;-74
2022/01/12 21:47:59;;;;;;;74.20;24.98;;;;;;;;;;10514791;28;20052;-72
2022/01/12 21:53:02;;;;;;;73.17;26.60;;;;;;;;;;10513584;28;20048;-72
2022/01/12 21:58:05;;;;;;;72.32;26.98;;;;;;;;;;10512121;28;20052;-71
2022/01/12 22:03:09;;;;;;;70.72;24.85;;;;;;;;;;10515109;28;20340;-71
2022/01/12 22:08:12;;;;;;;75.22;26.67;;;;;;;;;;10514366;28;20121;-72
2022/01/12 22:13:15;;;;;;;87.55;28.67;;;;;;;;;;10513715;28;20040;-74
2022/01/12 22:18:21;;;;;;;83.90;28.55;;;;;;;;;;10514931;28;20061;-73
2022/01/12 22:23:25;;;;;;;93.50;30.40;;;;;;;;;;10528615;28;20054;-73
2022/01/12 22:28:28;;;;;;;81.35;28.70;;;;;;;;;;10514655;28;20336;-72
2022/01/12 22:33:33;;;;;;;81.57;28.45;;;;;;;;;;10514601;28;20090;-71
2022/01/12 22:38:35;;;;;;;79.22;27.80;;;;;;;;;;10515377;28;20348;-72
2022/01/12 22:43:40;;;;;;;74.85;26.52;;;;;;;;;;10513160;28;20048;-72
2022/01/12 22:48:45;;;;;;;72.70;25.75;;;;;;;;;;10514301;28;20048;-72
2022/01/12 22:53:48;;;;;;;83.40;28.15;;;;;;;;;;10514829;28;20043;-74
2022/01/12 22:58:51;;;;;;;69.90;25.42;;;;;;;;;;10514309;28;20071;-71
2022/01/12 23:03:55;;;;;;;72.57;24.00;;;;;;;;;;10514321;28;20048;-71
2022/01/12 23:08:58;;;;;;;68.70;22.85;;;;;;;;;;10521630;28;20316;-72
2022/01/12 23:14:01;;;;;;;64.35;23.98;;;;;;;;;;10520913;28;20040;-71
2022/01/12 23:19:05;;;;;;;70.03;24.85;;;;;;;;;;10519920;28;20352;-70
2022/01/12 23:24:09;;;;;;;68.55;22.13;;;;;;;;;;10519617;28;20041;-74
2022/01/12 23:29:14;;;;;;;76.55;24.88;;;;;;;;;;10520753;28;20044;-74
2022/01/12 23:40:02;;;;;;;80.00;28.08;;;;;;;;;;10520543;28;20086;-72
2022/01/12 23:50:43;;;;;;;65.47;21.00;;;;;;;;;;10533182;28;20036;-72
2022/01/12 23:56:00;;;;;;;61.05;19.60;;;;;;;;;;10532782;28;20292;-72
